createdAt,value
2019-03-03T00:00:20.615Z,99951.58
2019-03-03T00:02:46.444Z,99954.28
2019-03-03T00:05:12.377Z,99940.16
2019-03-03T00:07:38.349Z,99943.97
2019-03-03T00:10:09.391Z,99941.13
2019-03-03T00:12:35.357Z,99945.27
2019-03-03T00:15:02.389Z,99946.00
2019-03-03T00:17:28.232Z,99950.03
2019-03-03T00:19:54.078Z,99954.20
2019-03-03T00:22:20.018Z,99941.47
2019-03-03T00:24:45.878Z,99950.11
2019-03-03T00:27:11.757Z,99956.05
2019-03-03T00:29:37.625Z,99946.58
2019-03-03T00:32:03.564Z,99948.45
2019-03-03T00:34:29.440Z,99952.34
2019-03-03T00:36:59.993Z,99949.18
2019-03-03T00:39:34.051Z,99951.17
2019-03-03T00:42:18.436Z,99950.75
2019-03-03T00:44:52.027Z,99957.77
2019-03-03T00:47:22.840Z,99966.22
2019-03-03T00:49:50.821Z,99963.83
2019-03-03T00:52:21.669Z,99965.55
2019-03-03T00:55:06.367Z,99968.84
2019-03-03T00:57:34.886Z,99976.73
2019-03-03T01:00:02.732Z,99976.71
2019-03-03T01:02:36.505Z,99977.81
2019-03-03T01:05:08.702Z,99984.77
2019-03-03T01:07:54.781Z,99990.00
2019-03-03T01:10:22.742Z,99987.31
2019-03-03T01:12:56.543Z,99986.63
2019-03-03T01:15:39.444Z,100000.34
2019-03-03T01:18:10.325Z,99994.58
2019-03-03T01:20:41.271Z,100001.24
2019-03-03T01:23:20.986Z,100012.27
2019-03-03T01:25:47.093Z,100008.62
2019-03-03T01:28:13.188Z,100008.12
2019-03-03T01:30:39.044Z,100008.81
2019-03-03T01:33:05.132Z,100012.61
2019-03-03T01:35:31.061Z,100005.19
2019-03-03T01:37:57.034Z,100016.80
2019-03-03T01:40:23.150Z,100012.12
2019-03-03T01:42:48.993Z,100022.34
2019-03-03T01:45:15.046Z,100004.79
2019-03-03T01:47:41.079Z,100008.24
2019-03-03T01:50:09.417Z,100011.91
2019-03-03T01:52:35.332Z,100010.24
2019-03-03T01:55:01.217Z,100017.97
2019-03-03T01:57:27.255Z,100016.67
2019-03-03T01:59:53.165Z,100019.05
2019-03-03T02:02:19.324Z,100024.24
2019-03-03T02:04:45.245Z,100023.61
2019-03-03T02:07:11.263Z,100023.98
2019-03-03T02:09:37.324Z,100034.89
2019-03-03T02:12:03.367Z,100020.86
2019-03-03T02:14:29.624Z,100022.05
2019-03-03T02:16:55.569Z,100016.36
2019-03-03T02:19:21.410Z,100015.92
2019-03-03T02:21:47.321Z,100013.71
2019-03-03T02:24:13.817Z,100012.59
2019-03-03T02:26:39.661Z,100013.58
2019-03-03T02:29:05.729Z,100012.80
2019-03-03T02:31:31.685Z,100026.22
2019-03-03T02:33:57.523Z,100017.08
2019-03-03T02:36:23.613Z,100021.90
2019-03-03T02:38:49.449Z,100018.02
2019-03-03T02:41:15.621Z,100014.85
2019-03-03T02:43:41.590Z,100016.63
2019-03-03T02:46:07.556Z,100014.69
2019-03-03T02:48:33.563Z,100003.10
2019-03-03T02:50:59.531Z,100004.89
2019-03-03T02:53:25.481Z,100001.81
2019-03-03T02:55:51.383Z,100011.00
2019-03-03T02:58:17.234Z,100008.92
2019-03-03T03:00:47.180Z,100009.55
2019-03-03T03:03:14.562Z,100019.70
2019-03-03T03:05:48.030Z,100018.03
2019-03-03T03:08:15.925Z,100019.86
2019-03-03T03:10:48.496Z,100012.32
2019-03-03T03:13:16.237Z,100003.91
2019-03-03T03:15:44.231Z,100003.96
2019-03-03T03:18:30.252Z,100011.45
2019-03-03T03:21:00.927Z,100001.45
2019-03-03T03:23:31.406Z,100004.15
2019-03-03T03:26:02.225Z,99997.61
2019-03-03T03:28:32.954Z,100003.26
2019-03-03T03:31:03.685Z,100009.00
2019-03-03T03:33:34.178Z,100004.27
2019-03-03T03:36:12.735Z,100010.75
2019-03-03T03:38:49.523Z,99999.84
2019-03-03T03:41:26.142Z,100004.27
2019-03-03T03:43:59.769Z,100001.34
2019-03-03T03:46:27.739Z,100003.17
2019-03-03T03:48:55.607Z,100007.13
2019-03-03T03:51:29.663Z,100006.27
2019-03-03T03:54:14.549Z,100012.88
2019-03-03T03:56:48.080Z,100011.08
2019-03-03T03:59:15.829Z,100012.77
2019-03-03T04:01:49.638Z,100009.22
2019-03-03T04:04:17.494Z,100010.96
2019-03-03T04:06:45.472Z,100014.92
2019-03-03T04:09:23.001Z,100013.24
2019-03-03T04:12:05.857Z,100009.22
2019-03-03T04:14:40.803Z,100003.97
2019-03-03T04:17:11.251Z,100004.02
2019-03-03T04:19:41.764Z,100012.83
2019-03-03T04:22:27.773Z,100011.45
2019-03-03T04:25:07.501Z,100016.31
2019-03-03T04:27:38.493Z,100021.59
2019-03-03T04:30:09.602Z,100025.50
2019-03-03T04:32:54.245Z,100034.56
2019-03-03T04:35:40.118Z,100030.68
2019-03-03T04:38:07.883Z,100030.48
2019-03-03T04:40:47.970Z,100029.95
2019-03-03T04:43:31.094Z,100042.23
2019-03-03T04:45:58.865Z,100047.95
2019-03-03T04:48:29.912Z,100046.66
2019-03-03T04:51:14.198Z,100045.42
2019-03-03T04:53:42.136Z,100049.91
2019-03-03T04:56:21.907Z,100049.80
2019-03-03T04:59:06.660Z,100052.38
2019-03-03T05:01:46.409Z,100050.66
2019-03-03T05:04:30.732Z,100054.60
2019-03-03T05:07:04.313Z,100058.53
2019-03-03T05:09:32.076Z,100057.34
2019-03-03T05:12:20.137Z,100074.03
2019-03-03T05:14:46.199Z,100079.83
2019-03-03T05:17:19.756Z,100076.05
2019-03-03T05:19:47.555Z,100072.88
2019-03-03T05:22:13.500Z,100083.77
2019-03-03T05:24:39.345Z,100085.02
2019-03-03T05:27:05.236Z,100091.09
2019-03-03T05:29:31.188Z,100083.30
2019-03-03T05:31:57.126Z,100088.87
2019-03-03T05:34:23.094Z,100083.30
2019-03-03T05:36:49.082Z,100082.39
2019-03-03T05:39:15.096Z,100087.87
2019-03-03T05:41:40.944Z,100064.45
2019-03-03T05:44:06.801Z,100058.83
2019-03-03T05:46:32.703Z,100065.78
2019-03-03T05:48:58.677Z,100065.84
2019-03-03T05:51:24.633Z,100065.07
2019-03-03T05:53:50.548Z,100065.08
2019-03-03T05:56:16.423Z,100072.89
2019-03-03T05:58:42.224Z,100085.25
2019-03-03T06:01:08.068Z,100095.90
2019-03-03T06:03:34.045Z,100105.09
2019-03-03T06:05:59.924Z,100101.92
2019-03-03T06:08:25.790Z,100114.98
2019-03-03T06:10:51.739Z,100118.67
2019-03-03T06:13:17.644Z,100122.48
2019-03-03T06:15:43.496Z,100121.70
2019-03-03T06:18:09.435Z,100127.81
2019-03-03T06:20:35.439Z,100129.66
2019-03-03T06:23:01.293Z,100138.25
2019-03-03T06:25:27.170Z,100134.31
2019-03-03T13:46:18.594Z,99928.66
2019-03-03T13:48:44.543Z,99928.73
2019-03-03T13:51:10.749Z,99927.16
2019-03-03T13:53:36.792Z,99932.59
2019-03-03T13:56:02.954Z,99924.89
2019-03-03T13:58:29.038Z,99923.80
2019-03-03T14:00:55.095Z,99920.53
2019-03-03T14:03:21.125Z,99912.83
2019-03-03T14:05:47.151Z,99913.72
2019-03-03T14:08:13.190Z,99908.19
2019-03-03T14:10:39.349Z,99901.71
2019-03-03T14:13:05.299Z,99906.59
2019-03-03T14:15:31.388Z,99898.92
2019-03-03T14:17:58.049Z,99900.08
2019-03-03T14:20:24.230Z,99894.52
2019-03-03T14:22:52.227Z,99880.05
2019-03-03T14:25:18.182Z,99878.32
2019-03-03T14:27:44.233Z,99872.84
2019-03-03T14:30:18.684Z,99870.13
2019-03-03T14:32:44.994Z,99863.20
2019-03-03T14:35:12.775Z,99864.28
2019-03-03T14:37:38.816Z,99857.69
2019-03-03T14:40:08.197Z,99856.77
2019-03-03T14:42:34.237Z,99850.38
2019-03-03T14:45:00.240Z,99860.28
2019-03-03T14:47:26.198Z,99853.17
2019-03-03T14:49:52.172Z,99854.91
2019-03-03T14:52:18.183Z,99851.03
2019-03-03T14:54:44.105Z,99848.25
2019-03-03T14:57:10.022Z,99853.09
2019-03-03T14:59:35.958Z,99850.33
2019-03-03T15:02:02.044Z,99842.00
2019-03-03T15:04:28.002Z,99843.52
2019-03-03T15:06:53.984Z,99849.04
2019-03-03T15:09:20.676Z,99850.38
2019-03-03T15:11:46.628Z,99851.20
2019-03-03T15:14:12.601Z,99854.42
2019-03-03T15:16:38.578Z,99847.95
2019-03-03T15:19:04.624Z,99847.91
2019-03-03T15:21:30.599Z,99852.28
2019-03-03T15:23:56.439Z,99846.30
2019-03-03T15:26:22.409Z,99852.34
2019-03-03T15:28:48.422Z,99840.73
2019-03-03T15:31:14.489Z,99837.31
2019-03-03T15:33:40.469Z,99835.16
2019-03-03T15:36:06.550Z,99830.64
2019-03-03T15:38:32.688Z,99824.38
2019-03-03T15:40:58.730Z,99838.75
2019-03-03T15:43:24.705Z,99833.56
2019-03-03T15:45:50.574Z,99835.55
2019-03-03T15:48:16.544Z,99832.22
2019-03-03T15:50:42.609Z,99831.47
2019-03-03T15:53:08.546Z,99835.77
2019-03-03T15:55:34.506Z,99823.73
2019-03-03T15:58:00.548Z,99818.32
2019-03-03T16:00:29.000Z,99822.38
2019-03-03T16:02:54.988Z,99811.89
2019-03-03T16:05:21.063Z,99815.17
2019-03-03T16:07:47.319Z,99815.17
2019-03-03T16:10:17.482Z,99817.00
2019-03-03T16:12:43.643Z,99818.31
2019-03-03T16:15:11.722Z,99822.34
2019-03-03T16:17:37.771Z,99809.06
2019-03-03T16:20:09.666Z,99807.81
2019-03-03T16:22:35.824Z,99810.70
2019-03-03T16:25:02.203Z,99812.20
2019-03-03T16:27:28.051Z,99816.56
2019-03-03T16:29:54.004Z,99813.26
2019-03-03T16:32:19.849Z,99812.52
2019-03-03T16:34:45.690Z,99819.66
2019-03-03T16:37:11.577Z,99819.20
2019-03-03T16:39:37.497Z,99820.03
2019-03-03T16:42:03.424Z,99814.09
2019-03-03T16:44:29.393Z,99820.09
2019-03-03T16:46:55.309Z,99817.77
2019-03-03T16:49:21.175Z,99814.70
2019-03-03T16:51:47.139Z,99818.47
2019-03-03T16:54:13.126Z,99823.37
2019-03-03T16:56:39.156Z,99819.27
2019-03-03T16:59:05.018Z,99820.64
2019-03-03T17:01:31.091Z,99817.55
2019-03-03T17:03:57.026Z,99819.83
2019-03-03T17:06:22.945Z,99820.52
2019-03-03T17:08:48.952Z,99818.98
2019-03-03T17:11:14.757Z,99821.41
2019-03-03T17:13:40.711Z,99821.15
2019-03-03T17:16:06.537Z,99818.96
2019-03-03T17:18:32.497Z,99820.40
2019-03-03T17:20:58.377Z,99812.95
2019-03-03T17:23:24.315Z,99814.41
2019-03-03T17:25:50.418Z,99809.63
2019-03-03T17:28:16.355Z,99806.95
2019-03-03T17:30:45.957Z,99812.52
2019-03-03T17:33:11.785Z,99821.13
2019-03-03T17:35:37.640Z,99830.11
2019-03-03T17:38:03.635Z,99837.50
2019-03-03T17:40:29.505Z,99839.09
2019-03-03T17:42:55.464Z,99842.87
2019-03-03T17:45:22.481Z,99841.09
2019-03-03T17:47:49.032Z,99840.81
2019-03-03T17:50:18.666Z,99845.33
2019-03-03T17:52:44.957Z,99846.04
2019-03-03T17:55:11.945Z,99840.34
2019-03-03T17:57:37.964Z,99841.41
2019-03-03T18:00:08.931Z,99836.11
2019-03-03T18:02:34.873Z,99835.84
2019-03-03T18:05:00.887Z,99828.06
2019-03-03T18:07:26.765Z,99827.66
2019-03-03T18:09:52.617Z,99826.77
2019-03-03T18:12:18.465Z,99830.11
2019-03-03T18:14:44.363Z,99827.52
2019-03-03T18:17:10.206Z,99835.81
2019-03-03T18:19:36.041Z,99844.61
2019-03-03T18:22:01.900Z,99843.41
2019-03-03T18:24:27.723Z,99842.20
2019-03-03T18:26:53.569Z,99846.80
2019-03-03T18:29:19.564Z,99850.13
2019-03-03T18:31:45.537Z,99849.47
2019-03-03T18:34:11.606Z,99842.63
2019-03-03T18:36:38.173Z,99833.48
2019-03-03T18:39:05.407Z,99832.53
2019-03-03T18:41:31.480Z,99832.83
2019-03-03T18:43:57.436Z,99819.28
2019-03-03T18:46:23.387Z,99822.13
2019-03-03T18:48:49.491Z,99822.73
2019-03-03T18:51:15.572Z,99825.00
2019-03-03T18:53:41.446Z,99826.09
2019-03-03T18:56:07.566Z,99810.14
2019-03-03T18:58:33.520Z,99806.16
2019-03-03T19:00:59.457Z,99810.73
2019-03-03T19:03:25.394Z,99816.91
2019-03-03T19:05:55.753Z,99815.59
2019-03-03T19:08:19.063Z,99822.51
2019-03-03T19:10:44.907Z,99833.64
2019-03-03T19:13:10.839Z,99835.52
2019-03-03T19:15:36.840Z,99834.18
2019-03-03T19:18:03.393Z,99834.83
2019-03-03T19:20:30.463Z,99831.76
2019-03-03T19:22:56.432Z,99836.59
2019-03-03T19:25:22.477Z,99845.73
2019-03-03T19:27:48.600Z,99858.73
2019-03-03T19:30:21.370Z,99862.33
2019-03-03T19:32:54.606Z,99872.53
2019-03-03T19:35:20.677Z,99875.77
2019-03-03T19:37:46.757Z,99876.83
2019-03-03T19:40:12.820Z,99871.77
2019-03-03T19:42:38.984Z,99880.17
2019-03-03T19:45:20.259Z,99873.90
2019-03-03T19:47:46.343Z,99871.19
2019-03-03T19:50:13.289Z,99865.82
2019-03-03T19:52:39.294Z,99864.90
2019-03-03T19:55:08.261Z,99862.65
2019-03-03T19:57:34.242Z,99873.16
2019-03-03T20:00:00.236Z,99867.27
2019-03-03T20:02:26.347Z,99862.44
2019-03-03T20:04:52.536Z,99853.89
2019-03-03T20:07:18.591Z,99843.45
2019-03-03T20:09:45.240Z,99844.28
2019-03-03T20:12:11.298Z,99841.50
2019-03-03T20:14:37.263Z,99843.07
2019-03-03T20:17:03.508Z,99846.30
2019-03-03T20:19:29.428Z,99844.66
2019-03-03T20:21:55.268Z,99843.46
2019-03-03T20:24:21.338Z,99838.69
2019-03-03T20:26:47.318Z,99835.92
2019-03-03T20:29:13.280Z,99831.34
2019-03-03T20:31:39.218Z,99835.73
2019-03-03T20:34:05.094Z,99842.47
2019-03-03T20:36:31.076Z,99833.81
2019-03-03T20:38:57.040Z,99831.42
2019-03-03T20:41:22.976Z,99840.13
2019-03-03T20:43:48.839Z,99863.87
2019-03-03T20:46:14.811Z,99851.54
2019-03-03T20:48:40.886Z,99844.62
2019-03-03T20:51:07.137Z,99849.02
2019-03-03T20:53:33.489Z,99845.03
2019-03-03T20:55:59.735Z,99842.91
2019-03-03T20:58:26.418Z,99830.61
2019-03-03T21:00:53.413Z,99826.27
2019-03-03T21:03:21.751Z,99837.81
2019-03-03T21:05:48.318Z,99829.56
2019-03-03T21:08:15.034Z,99831.83
2019-03-03T21:10:41.747Z,99841.13
2019-03-03T21:13:08.397Z,99845.05
2019-03-03T21:15:35.181Z,99857.94
2019-03-03T21:18:01.880Z,99838.61
2019-03-03T21:20:28.684Z,99843.14
2019-03-03T21:22:55.341Z,99835.19
2019-03-03T21:25:21.708Z,99834.55
2019-03-03T21:27:47.932Z,99833.36
2019-03-03T21:30:18.226Z,99831.52
2019-03-03T21:32:44.155Z,99828.70
2019-03-03T21:35:11.131Z,99825.64
2019-03-03T21:37:37.053Z,99825.94
2019-03-03T21:40:06.414Z,99819.66
2019-03-03T21:42:32.368Z,99832.77
2019-03-03T21:44:58.287Z,99831.40
2019-03-03T21:47:24.118Z,99827.77
2019-03-03T21:49:50.032Z,99827.98
2019-03-03T21:52:15.879Z,99827.98
2019-03-03T21:54:42.682Z,99830.63
2019-03-03T21:57:09.772Z,99822.86
2019-03-03T21:59:35.625Z,99825.00
2019-03-03T22:02:01.467Z,99826.92
2019-03-03T22:04:27.453Z,99826.66
2019-03-03T22:06:53.300Z,99822.22
2019-03-03T22:09:21.518Z,99821.37
2019-03-03T22:11:47.489Z,99823.97
2019-03-03T22:14:13.318Z,99828.78
2019-03-03T22:16:39.203Z,99817.70
2019-03-03T22:19:05.056Z,99820.84
2019-03-03T22:21:31.006Z,99823.58
2019-03-03T22:23:57.002Z,99819.06
2019-03-03T22:26:22.951Z,99820.30
2019-03-03T22:28:48.886Z,99820.55
2019-03-03T22:31:14.941Z,99820.61
2019-03-03T22:33:40.807Z,99809.62
2019-03-03T22:36:10.813Z,99813.20
2019-03-03T22:38:36.658Z,99807.65
2019-03-03T22:41:02.711Z,99815.50
2019-03-03T22:43:28.645Z,99811.44
2019-03-03T22:45:54.691Z,99814.46
2019-03-03T22:48:20.595Z,99810.77
2019-03-03T22:50:46.466Z,99806.63
2019-03-03T22:53:12.715Z,99810.31
2019-03-03T22:55:40.404Z,99803.27
2019-03-03T22:58:06.648Z,99806.67
2019-03-03T23:00:50.026Z,99807.52
2019-03-03T23:03:25.471Z,99803.98
2019-03-03T23:05:58.189Z,99805.54
2019-03-03T23:08:33.901Z,99805.69
2019-03-03T23:11:30.759Z,99813.85
2019-03-03T23:14:12.740Z,99818.45
2019-03-03T23:16:42.481Z,99817.15
2019-03-03T23:19:27.243Z,99818.16
2019-03-03T23:22:14.912Z,99815.64
2019-03-03T23:24:59.426Z,99821.70
2019-03-03T23:27:25.395Z,99825.36
2019-03-03T23:29:51.386Z,99819.76
2019-03-03T23:32:17.555Z,99819.34
2019-03-03T23:34:43.482Z,99835.42
2019-03-03T23:37:09.389Z,99820.26
2019-03-03T23:39:35.317Z,99815.55
2019-03-03T23:42:01.418Z,99807.48
2019-03-03T23:44:27.422Z,99814.92
2019-03-03T23:46:53.241Z,99806.50
2019-03-03T23:49:19.079Z,99806.14
2019-03-03T23:51:45.143Z,99803.84
2019-03-03T23:54:11.144Z,99799.84
2019-03-03T23:56:36.997Z,99801.62
2019-03-03T23:59:02.958Z,99795.24
